createdAt,value
2023-04-11T00:02:19.344Z,62.44
2023-04-11T00:04:45.924Z,62.15
2023-04-11T00:07:12.326Z,62.84
2023-04-11T00:09:38.707Z,63.13
2023-04-11T00:12:05.311Z,63.14
2023-04-11T00:14:34.044Z,63.19
2023-04-11T00:17:03.454Z,63.25
2023-04-11T00:19:29.806Z,63.38
2023-04-11T00:22:00.489Z,63.04
2023-04-11T00:24:27.087Z,63.19
2023-04-11T00:26:53.624Z,63.28
2023-04-11T00:29:20.018Z,63.23
2023-04-11T00:31:46.396Z,63.31
2023-04-11T00:34:12.829Z,63.20
2023-04-11T00:36:41.917Z,63.19
2023-04-11T00:39:09.054Z,63.23
2023-04-11T00:41:35.701Z,63.38
2023-04-11T00:44:02.113Z,63.24
2023-04-11T00:46:28.659Z,63.37
2023-04-11T00:48:55.576Z,63.76
2023-04-11T00:51:22.260Z,63.83
2023-04-11T00:53:48.616Z,63.87
2023-04-11T00:56:14.949Z,64.11
2023-04-11T00:58:41.394Z,63.99
2023-04-11T01:01:10.508Z,64.28
2023-04-11T01:03:39.956Z,64.04
2023-04-11T01:06:07.298Z,64.21
2023-04-11T01:08:36.737Z,64.31
2023-04-11T01:11:03.626Z,64.63
2023-04-11T01:13:30.310Z,64.71
2023-04-11T01:15:56.644Z,64.73
2023-04-11T01:18:22.994Z,64.54
2023-04-11T01:20:49.393Z,64.53
2023-04-11T01:23:19.693Z,64.42
2023-04-11T01:25:46.136Z,64.42
2023-04-11T01:28:12.725Z,64.48
2023-04-11T01:30:39.139Z,64.70
2023-04-11T01:33:05.672Z,64.58
2023-04-11T01:35:32.165Z,64.71
2023-04-11T01:37:58.550Z,64.54
2023-04-11T01:40:24.864Z,64.68
2023-04-11T01:42:51.408Z,64.47
2023-04-11T01:45:17.969Z,64.28
2023-04-11T01:47:44.721Z,64.37
2023-04-11T01:50:12.127Z,64.21
2023-04-11T01:52:38.589Z,64.46
2023-04-11T01:55:05.156Z,64.25
2023-04-11T01:57:31.666Z,64.71
2023-04-11T01:59:58.000Z,65.27
2023-04-11T02:02:26.066Z,65.16
2023-04-11T02:04:52.543Z,65.31
2023-04-11T02:07:20.728Z,65.51
2023-04-11T02:09:47.119Z,65.63
2023-04-11T02:12:13.724Z,65.56
2023-04-11T02:14:41.784Z,65.73
2023-04-11T02:17:09.932Z,65.96
2023-04-11T02:19:36.892Z,66.53
2023-04-11T02:22:03.234Z,66.07
2023-04-11T02:24:29.580Z,66.09
2023-04-11T02:26:56.642Z,66.54
2023-04-11T02:29:22.959Z,66.39
2023-04-11T02:31:49.756Z,66.36
2023-04-11T02:34:16.207Z,66.69
2023-04-11T02:36:43.820Z,66.33
2023-04-11T02:39:10.137Z,66.49
2023-04-11T02:41:38.680Z,66.40
2023-04-11T02:44:05.049Z,66.30
2023-04-11T02:46:31.419Z,66.17
2023-04-11T02:48:58.026Z,66.24
2023-04-11T02:51:24.504Z,65.94
2023-04-11T02:53:52.187Z,66.00
2023-04-11T02:56:19.195Z,65.93
2023-04-11T02:58:46.034Z,65.91
2023-04-11T03:01:12.502Z,65.72
2023-04-11T03:03:38.993Z,65.84
2023-04-11T03:06:06.835Z,65.86
2023-04-11T03:08:33.500Z,65.89
2023-04-11T03:10:59.862Z,65.55
2023-04-11T03:13:26.267Z,65.56
2023-04-11T03:15:52.654Z,65.51
2023-04-11T03:18:19.376Z,66.20
2023-04-11T03:20:45.717Z,66.13
2023-04-11T03:23:12.097Z,65.94
2023-04-11T03:25:38.911Z,66.45
2023-04-11T03:28:05.483Z,66.43
2023-04-11T03:30:32.074Z,66.37
2023-04-11T03:33:01.291Z,66.29
2023-04-11T03:35:27.950Z,66.43
2023-04-11T03:37:54.277Z,66.10
2023-04-11T03:40:20.846Z,65.50
2023-04-11T03:42:47.227Z,65.60
2023-04-11T03:45:13.586Z,65.55
2023-04-11T03:47:40.370Z,65.64
2023-04-11T03:50:07.308Z,65.33
2023-04-11T03:52:34.039Z,65.73
2023-04-11T03:55:00.739Z,65.65
2023-04-11T03:57:28.087Z,65.53
2023-04-11T03:59:55.388Z,65.37
2023-04-11T04:02:22.007Z,65.75
2023-04-11T04:04:50.714Z,65.81
2023-04-11T04:07:18.074Z,65.82
2023-04-11T04:09:44.525Z,65.69
2023-04-11T04:12:10.922Z,65.84
2023-04-11T04:14:37.243Z,65.99
2023-04-11T04:17:03.593Z,65.94
2023-04-11T04:19:30.041Z,65.79
2023-04-11T04:21:58.177Z,66.02
2023-04-11T04:24:38.607Z,65.94
2023-04-11T04:27:11.390Z,65.82
2023-04-11T04:29:46.469Z,66.27
2023-04-11T04:32:14.739Z,62.66
2023-04-11T04:34:46.621Z,61.42
2023-04-11T04:37:21.626Z,61.34
2023-04-11T04:39:51.087Z,60.48
2023-04-11T04:42:17.560Z,60.81
2023-04-11T04:44:44.104Z,60.63
2023-04-11T04:47:10.461Z,60.35
2023-04-11T04:49:37.416Z,60.17
2023-04-11T04:52:04.020Z,59.57
2023-04-11T04:54:31.300Z,59.35
2023-04-11T04:56:57.873Z,58.78
2023-04-11T04:59:24.240Z,60.03
2023-04-11T05:01:51.655Z,59.17
2023-04-11T05:04:18.239Z,58.90
2023-04-11T05:06:44.889Z,58.33
2023-04-11T05:09:11.269Z,58.39
2023-04-11T05:11:37.620Z,58.42
2023-04-11T05:14:04.097Z,58.11
2023-04-11T05:16:30.595Z,57.96
2023-04-11T05:18:56.934Z,58.22
2023-04-11T05:21:23.409Z,58.21
2023-04-11T05:23:49.725Z,58.13
2023-04-11T05:26:16.119Z,57.65
2023-04-11T05:28:42.665Z,57.94
2023-04-11T05:31:09.900Z,57.62
2023-04-11T05:33:38.688Z,57.65
2023-04-11T05:36:06.052Z,57.61
2023-04-11T05:38:35.540Z,57.34
2023-04-11T05:41:01.924Z,57.50
2023-04-11T05:43:28.374Z,57.47
2023-04-11T05:45:54.759Z,57.47
2023-04-11T05:48:21.219Z,57.50
2023-04-11T05:50:47.650Z,57.48
2023-04-11T05:53:14.050Z,57.36
2023-04-11T05:55:40.454Z,57.37
2023-04-11T05:58:06.842Z,57.42
2023-04-11T06:00:33.206Z,57.58
2023-04-11T06:03:00.314Z,57.32
2023-04-11T06:05:31.153Z,57.46
2023-04-11T06:07:58.520Z,57.26
2023-04-11T06:10:25.199Z,57.12
2023-04-11T06:12:51.821Z,57.24
2023-04-11T06:15:18.199Z,57.27
2023-04-11T06:17:45.382Z,57.24
2023-04-11T06:20:11.909Z,57.21
2023-04-11T06:22:40.041Z,57.21
2023-04-11T06:25:06.934Z,57.09
2023-04-11T06:27:33.303Z,57.22
2023-04-11T06:29:59.637Z,57.15
2023-04-11T06:32:26.213Z,57.09
2023-04-11T06:34:52.830Z,57.08
2023-04-11T06:37:19.576Z,57.13
2023-04-11T06:39:45.984Z,57.07
2023-04-11T06:42:12.468Z,57.01
2023-04-11T06:44:38.835Z,56.98
2023-04-11T06:47:05.342Z,57.11
2023-04-11T06:49:32.572Z,56.96
2023-04-11T06:51:59.520Z,56.84
2023-04-11T06:54:25.897Z,56.71
2023-04-11T06:56:52.279Z,56.74
2023-04-11T06:59:22.327Z,56.82
2023-04-11T07:01:49.291Z,56.95
2023-04-11T07:04:16.516Z,56.50
2023-04-11T07:06:42.923Z,56.69
2023-04-11T07:09:15.535Z,56.49
2023-04-11T07:11:41.974Z,56.52
2023-04-11T07:14:08.310Z,56.47
2023-04-11T07:16:34.865Z,56.43
2023-04-11T07:19:03.042Z,56.49
2023-04-11T07:21:30.356Z,56.41
2023-04-11T07:23:57.105Z,56.48
2023-04-11T07:26:23.902Z,56.56
2023-04-11T07:28:51.151Z,56.27
2023-04-11T07:31:19.673Z,56.24
2023-04-11T07:33:46.167Z,56.26
2023-04-11T07:36:12.599Z,56.47
2023-04-11T07:38:38.968Z,56.73
2023-04-11T07:41:05.651Z,56.85
2023-04-11T07:43:32.043Z,56.54
2023-04-11T07:45:58.660Z,56.56
2023-04-11T07:48:25.974Z,56.64
2023-04-11T07:50:52.612Z,56.77
2023-04-11T07:53:18.922Z,56.62
2023-04-11T07:55:45.380Z,56.83
2023-04-11T07:58:11.704Z,56.86
2023-04-11T08:00:41.352Z,56.92
2023-04-11T08:03:08.603Z,56.98
2023-04-11T08:05:35.467Z,57.13
2023-04-11T08:08:02.257Z,57.06
2023-04-11T08:10:28.639Z,57.06
2023-04-11T08:12:55.254Z,57.10
2023-04-11T08:15:21.569Z,57.13
2023-04-11T08:17:49.782Z,57.14
2023-04-11T08:20:16.417Z,57.18
2023-04-11T08:22:44.843Z,57.12
2023-04-11T08:25:11.894Z,57.29
2023-04-11T08:27:38.559Z,57.37
2023-04-11T08:30:08.250Z,57.28
2023-04-11T08:32:35.074Z,57.34
2023-04-11T08:35:01.503Z,57.66
2023-04-11T08:37:27.939Z,57.65
2023-04-11T08:39:54.313Z,57.50
2023-04-11T08:42:29.818Z,57.37
2023-04-11T08:44:57.149Z,57.40
2023-04-11T08:47:26.367Z,57.49
2023-04-11T08:49:53.017Z,57.48
2023-04-11T08:52:19.803Z,57.41
2023-04-11T08:54:46.694Z,57.41
2023-04-11T08:57:26.169Z,57.49
2023-04-11T08:59:53.382Z,57.40
2023-04-11T09:02:20.001Z,57.43
2023-04-11T09:04:47.555Z,57.32
2023-04-11T09:07:14.149Z,57.40
2023-04-11T09:09:40.639Z,57.46
2023-04-11T09:12:07.125Z,57.54
2023-04-11T09:14:33.583Z,57.47
2023-04-11T09:16:59.958Z,57.35
2023-04-11T09:19:27.389Z,57.25
2023-04-11T09:21:54.290Z,57.14
2023-04-11T09:24:20.951Z,57.17
2023-04-11T09:26:47.338Z,57.06
2023-04-11T09:29:20.975Z,57.07
2023-04-11T09:31:47.413Z,57.18
2023-04-11T09:34:13.874Z,57.14
2023-04-11T09:36:40.521Z,57.08
2023-04-11T09:39:19.612Z,57.14
2023-04-11T09:41:46.132Z,57.30
2023-04-11T09:44:12.781Z,57.07
2023-04-11T09:47:00.547Z,57.13
2023-04-11T09:49:27.036Z,57.01
2023-04-11T09:51:53.383Z,57.09
2023-04-11T09:54:22.765Z,57.10
2023-04-11T09:56:49.387Z,57.07
2023-04-11T09:59:16.393Z,56.88
2023-04-11T10:01:43.082Z,57.14
2023-04-11T10:04:12.899Z,57.29
2023-04-11T10:06:55.253Z,57.29
2023-04-11T10:09:21.874Z,57.31
2023-04-11T10:11:48.378Z,57.00
2023-04-11T10:14:33.270Z,56.85
2023-04-11T10:17:22.182Z,56.96
2023-04-11T10:19:51.713Z,56.88
2023-04-11T10:22:37.104Z,56.93
2023-04-11T10:25:14.660Z,56.89
2023-04-11T10:27:53.903Z,56.94
2023-04-11T10:30:39.095Z,56.83
2023-04-11T10:33:12.361Z,57.19
2023-04-11T10:36:03.765Z,57.20
2023-04-11T10:38:49.239Z,57.06
2023-04-11T10:41:18.614Z,57.16
2023-04-11T10:43:45.425Z,57.46
2023-04-11T10:46:22.119Z,57.08
2023-04-11T10:49:00.764Z,56.95
2023-04-11T10:51:28.142Z,57.18
2023-04-11T10:53:55.567Z,57.08
2023-04-11T10:56:40.287Z,57.00
2023-04-11T10:59:06.644Z,57.12
2023-04-11T11:01:42.830Z,57.06
2023-04-11T11:04:15.454Z,57.10
2023-04-11T11:06:50.803Z,56.85
2023-04-11T11:09:23.190Z,56.86
2023-04-11T11:12:05.250Z,57.03
2023-04-11T11:14:31.618Z,57.09
2023-04-11T11:16:57.958Z,57.05
2023-04-11T11:19:24.327Z,57.18
2023-04-11T11:21:51.612Z,57.04
2023-04-11T11:24:23.977Z,57.17
2023-04-11T11:26:50.694Z,57.18
2023-04-11T11:29:17.636Z,57.13
2023-04-11T11:31:45.730Z,57.19
2023-04-11T11:36:45.639Z,56.94
2023-04-11T11:39:12.016Z,57.02
2023-04-11T11:41:38.556Z,57.10
2023-04-11T11:44:05.664Z,57.03
2023-04-11T11:46:33.823Z,56.98
2023-04-11T11:49:02.144Z,57.25
2023-04-11T11:51:41.691Z,57.19
2023-04-11T11:54:08.826Z,57.16
2023-04-11T11:56:35.908Z,57.23
2023-04-11T11:59:04.751Z,57.20
2023-04-11T12:01:32.072Z,57.27
2023-04-11T12:03:58.743Z,57.09
2023-04-11T12:06:28.859Z,57.19
2023-04-11T12:09:01.013Z,56.89
2023-04-11T12:11:27.331Z,56.74
2023-04-11T12:13:53.899Z,56.91
2023-04-11T12:16:21.735Z,56.84
2023-04-11T12:18:48.202Z,56.91
2023-04-11T12:21:14.604Z,56.95
2023-04-11T12:23:40.936Z,56.59
2023-04-11T12:26:07.296Z,56.87
2023-04-11T12:28:33.652Z,56.46
2023-04-11T12:30:59.974Z,56.55
2023-04-11T12:33:26.323Z,56.23
2023-04-11T12:35:52.752Z,56.22
2023-04-11T12:38:19.065Z,56.19
2023-04-11T12:40:45.500Z,56.32
2023-04-11T12:43:11.904Z,55.96
2023-04-11T12:45:38.249Z,56.13
2023-04-11T12:48:04.745Z,55.98
2023-04-11T12:50:31.173Z,55.79
2023-04-11T12:52:57.522Z,56.11
2023-04-11T12:55:23.932Z,56.05
2023-04-11T12:57:50.489Z,56.06
2023-04-11T13:00:17.073Z,56.16
2023-04-11T13:02:44.923Z,56.02
2023-04-11T13:05:14.456Z,56.23
2023-04-11T13:07:41.353Z,56.25
2023-04-11T13:10:07.998Z,56.56
2023-04-11T13:12:39.645Z,56.51
2023-04-11T13:15:06.869Z,56.37
2023-04-11T13:17:33.457Z,56.70
2023-04-11T13:19:59.882Z,56.46
2023-04-11T13:22:27.136Z,56.56
2023-04-11T13:24:53.525Z,56.54
2023-04-11T13:27:19.872Z,56.53
2023-04-11T13:29:48.925Z,56.65
2023-04-11T13:32:15.492Z,56.62
2023-04-11T13:34:41.880Z,56.63
2023-04-11T13:37:08.241Z,56.46
2023-04-11T13:39:34.566Z,56.89
2023-04-11T13:42:00.937Z,57.28
2023-04-11T13:44:27.330Z,57.85
2023-04-11T13:46:53.732Z,57.55
2023-04-11T13:49:20.305Z,57.58
2023-04-11T13:51:46.702Z,57.52
2023-04-11T13:54:13.066Z,57.50
2023-04-11T13:56:39.426Z,57.81
2023-04-11T13:59:05.961Z,57.71
2023-04-11T14:01:32.734Z,56.16
2023-04-11T14:03:59.501Z,57.21
2023-04-11T14:06:26.315Z,57.81
2023-04-11T14:08:52.663Z,57.64
2023-04-11T14:11:19.285Z,57.76
2023-04-11T14:13:47.612Z,57.83
2023-04-11T14:16:14.033Z,57.92
2023-04-11T14:18:40.708Z,58.27
2023-04-11T14:21:08.034Z,58.56
2023-04-11T14:23:34.400Z,58.53
2023-04-11T14:26:00.854Z,58.65
2023-04-11T14:28:27.183Z,59.15
2023-04-11T14:30:53.831Z,59.29
2023-04-11T14:33:20.469Z,59.04
2023-04-11T14:35:47.249Z,59.18
2023-04-11T14:38:14.590Z,59.51
2023-04-11T14:40:41.484Z,59.70
2023-04-11T14:43:07.941Z,59.87
2023-04-11T14:45:34.262Z,60.19
2023-04-11T14:48:00.750Z,60.63
2023-04-11T14:50:28.886Z,60.29
2023-04-11T14:52:55.783Z,60.06
2023-04-11T14:55:22.707Z,60.07
2023-04-11T14:57:51.053Z,60.01
2023-04-11T15:00:21.870Z,59.87
2023-04-11T15:02:49.363Z,59.77
2023-04-11T15:05:19.789Z,60.20
2023-04-11T15:07:46.835Z,60.26
2023-04-11T15:10:13.766Z,60.62
2023-04-11T15:12:40.218Z,60.65
2023-04-11T15:15:08.482Z,60.58
2023-04-11T15:17:38.737Z,60.58
2023-04-11T15:20:06.518Z,60.73
2023-04-11T15:22:32.852Z,60.79
2023-04-11T15:24:59.248Z,60.44
2023-04-11T15:27:26.234Z,60.64
2023-04-11T15:29:54.659Z,60.50
2023-04-11T15:32:21.115Z,60.32
2023-04-11T15:34:49.655Z,60.25
2023-04-11T15:37:16.045Z,60.47
2023-04-11T15:39:42.430Z,60.40
2023-04-11T15:42:08.814Z,60.54
2023-04-11T15:44:35.154Z,60.76
2023-04-11T15:47:01.729Z,60.65
2023-04-11T15:49:28.171Z,60.83
2023-04-11T15:51:54.556Z,60.91
2023-04-11T15:54:20.972Z,61.30
2023-04-11T15:56:47.322Z,61.11
2023-04-11T15:59:15.539Z,61.09
2023-04-11T16:01:42.134Z,60.92
2023-04-11T16:04:09.008Z,60.96
2023-04-11T16:06:36.182Z,60.79
2023-04-11T16:09:02.565Z,60.61
2023-04-11T16:11:28.905Z,60.43
2023-04-11T16:13:55.626Z,60.59
2023-04-11T16:16:22.202Z,60.87
2023-04-11T16:18:48.650Z,61.44
2023-04-11T16:21:15.729Z,63.43
2023-04-11T16:23:42.661Z,63.89
2023-04-11T16:26:09.031Z,64.20
2023-04-11T16:28:35.587Z,64.73
2023-04-11T16:31:01.998Z,65.00
2023-04-11T16:33:28.335Z,65.28
2023-04-11T16:35:54.914Z,65.41
2023-04-11T16:38:21.387Z,65.46
2023-04-11T16:40:47.725Z,65.52
2023-04-11T16:43:14.063Z,65.39
2023-04-11T16:45:40.566Z,65.17
2023-04-11T16:48:08.052Z,64.57
2023-04-11T16:50:35.186Z,64.30
2023-04-11T16:53:01.562Z,64.25
2023-04-11T16:55:27.890Z,64.41
2023-04-11T16:57:54.231Z,63.89
2023-04-11T17:00:20.720Z,63.96
2023-04-11T17:02:47.192Z,63.96
2023-04-11T17:05:13.710Z,63.61
2023-04-11T17:07:40.141Z,63.63
2023-04-11T17:10:07.070Z,63.80
2023-04-11T17:12:33.399Z,62.99
2023-04-11T17:15:00.432Z,63.15
2023-04-11T17:42:14.618Z,88.66
2023-04-11T17:44:41.209Z,92.15
2023-04-11T17:47:10.189Z,96.40
2023-04-11T17:49:36.655Z,100.00
2023-04-11T17:52:03.032Z,100.00
2023-04-11T17:54:29.549Z,100.00
2023-04-11T17:56:56.420Z,100.00
2023-04-11T17:59:24.189Z,100.00
2023-04-11T18:01:53.616Z,100.00
2023-04-11T18:04:20.287Z,100.00
2023-04-11T18:06:47.776Z,100.00
2023-04-11T18:09:15.835Z,100.00
2023-04-11T18:11:43.832Z,100.00
2023-04-11T18:14:10.818Z,100.00
2023-04-11T18:16:39.025Z,100.00
2023-04-11T18:19:05.472Z,100.00
2023-04-11T18:21:33.096Z,100.00
2023-04-11T18:24:00.765Z,100.00
2023-04-11T18:26:27.498Z,100.00
2023-04-11T18:28:53.833Z,100.00
2023-04-11T18:31:22.607Z,100.00
2023-04-11T18:33:53.002Z,100.00
2023-04-11T18:36:22.459Z,100.00
2023-04-11T18:38:49.396Z,100.00
2023-04-11T18:41:17.373Z,100.00
2023-04-11T18:43:45.103Z,100.00
2023-04-11T18:46:11.547Z,100.00
2023-04-11T18:48:38.067Z,100.00
2023-04-11T18:51:05.039Z,100.00
2023-04-11T18:53:31.379Z,100.00
2023-04-11T18:55:58.114Z,100.00
2023-04-11T18:58:26.013Z,100.00
2023-04-11T19:00:52.874Z,100.00
2023-04-11T19:03:19.515Z,100.00
2023-04-11T19:05:46.625Z,100.00
2023-04-11T19:08:13.438Z,100.00
2023-04-11T19:10:39.900Z,100.00
2023-04-11T19:13:06.328Z,100.00
2023-04-11T19:15:32.713Z,100.00
2023-04-11T19:18:02.136Z,100.00
2023-04-11T19:20:35.094Z,100.00
2023-04-11T19:23:02.557Z,100.00
2023-04-11T19:25:29.506Z,100.00
2023-04-11T19:27:56.563Z,100.00
2023-04-11T19:30:23.033Z,100.00
2023-04-11T19:32:50.558Z,100.00
2023-04-11T19:35:19.394Z,100.00
2023-04-11T19:37:48.192Z,100.00
2023-04-11T19:40:14.542Z,100.00
2023-04-11T19:42:41.622Z,100.00
2023-04-11T19:45:11.529Z,100.00
2023-04-11T19:47:39.640Z,100.00
2023-04-11T19:50:06.919Z,100.00
2023-04-11T19:52:33.429Z,100.00
2023-04-11T19:55:02.180Z,100.00
2023-04-11T19:57:31.966Z,100.00
2023-04-11T19:59:58.384Z,100.00
2023-04-11T20:02:26.251Z,100.00
2023-04-11T20:04:56.056Z,100.00
2023-04-11T20:07:22.843Z,100.00
2023-04-11T20:09:49.281Z,100.00
2023-04-11T20:12:15.638Z,100.00
2023-04-11T20:14:42.131Z,100.00
2023-04-11T20:17:08.773Z,100.00
2023-04-11T20:19:38.055Z,100.00
2023-04-11T20:22:04.737Z,100.00
2023-04-11T20:24:31.104Z,100.00
2023-04-11T20:26:57.456Z,100.00
2023-04-11T20:29:24.745Z,100.00
2023-04-11T20:31:52.402Z,100.00
2023-04-11T20:34:18.803Z,100.00
2023-04-11T20:36:45.388Z,100.00
2023-04-11T20:39:11.828Z,100.00
2023-04-11T20:42:04.354Z,100.00
2023-04-11T20:44:30.720Z,100.00
2023-04-11T20:46:57.119Z,100.00
2023-04-11T20:49:28.154Z,100.00
2023-04-11T20:51:54.899Z,100.00
2023-04-11T20:54:21.881Z,100.00
2023-04-11T20:56:49.440Z,100.00
2023-04-11T20:59:16.142Z,100.00
2023-04-11T21:01:43.963Z,100.00
2023-04-11T21:04:11.503Z,100.00
2023-04-11T21:06:38.093Z,100.00
2023-04-11T21:09:05.336Z,100.00
2023-04-11T21:11:32.073Z,100.00
2023-04-11T21:13:58.684Z,100.00
2023-04-11T21:16:25.402Z,100.00
2023-04-11T21:18:51.821Z,100.00
2023-04-11T21:21:18.171Z,100.00
2023-04-11T21:23:44.572Z,100.00
2023-04-11T21:26:11.757Z,100.00
2023-04-11T21:28:38.227Z,100.00
2023-04-11T21:31:04.734Z,100.00
2023-04-11T21:33:31.110Z,100.00
2023-04-11T21:35:57.485Z,100.00
2023-04-11T21:38:23.946Z,100.00
2023-04-11T21:40:51.293Z,100.00
2023-04-11T21:43:17.660Z,100.00
2023-04-11T21:45:43.984Z,100.00
2023-04-11T21:48:10.675Z,100.00
2023-04-11T21:50:37.107Z,100.00
2023-04-11T21:53:03.657Z,100.00
2023-04-11T21:55:30.045Z,100.00
2023-04-11T21:57:56.395Z,100.00
2023-04-11T22:00:22.859Z,100.00
2023-04-11T22:28:20.389Z,100.00
2023-04-11T22:30:47.057Z,100.00
2023-04-11T22:36:17.820Z,100.00
2023-04-11T22:38:44.787Z,100.00
2023-04-11T22:41:17.101Z,100.00
2023-04-11T22:43:59.918Z,100.00
2023-04-11T22:46:28.416Z,100.00
2023-04-11T22:49:08.674Z,100.00
2023-04-11T22:51:40.725Z,100.00
2023-04-11T22:54:35.598Z,100.00
2023-04-11T23:05:26.098Z,100.00
2023-04-11T23:07:52.998Z,100.00
2023-04-11T23:10:20.944Z,100.00
2023-04-11T23:12:48.038Z,100.00
2023-04-11T23:15:14.856Z,100.00
2023-04-11T23:17:42.561Z,100.00
2023-04-11T23:20:13.783Z,100.00
2023-04-11T23:22:42.272Z,100.00
2023-04-11T23:25:11.995Z,100.00
2023-04-11T23:27:38.667Z,100.00
2023-04-11T23:30:12.591Z,100.00
2023-04-11T23:32:39.750Z,100.00
2023-04-11T23:35:07.623Z,100.00
2023-04-11T23:37:34.047Z,100.00
2023-04-11T23:40:03.155Z,100.00
2023-04-11T23:42:29.534Z,100.00
2023-04-11T23:44:55.958Z,100.00
2023-04-11T23:47:22.472Z,100.00
2023-04-11T23:49:48.884Z,100.00
2023-04-11T23:52:15.396Z,100.00
2023-04-11T23:54:41.893Z,100.00
2023-04-11T23:57:08.367Z,100.00
2023-04-11T23:59:34.888Z,100.00
